sensor_id;sensor_type;location;lat;lon;timestamp;P1;durP1;ratioP1;P2;durP2;ratioP2
4748;SDS011;2388;53.582;9.962;2022-09-12T00:01:46;3.63;;;3.33;;
4748;SDS011;2388;53.582;9.962;2022-09-12T00:04:12;3.43;;;3.23;;
4748;SDS011;2388;53.582;9.962;2022-09-12T00:06:37;2.83;;;2.63;;
4748;SDS011;2388;53.582;9.962;2022-09-12T00:09:04;2.63;;;2.50;;
4748;SDS011;2388;53.582;9.962;2022-09-12T00:11:33;2.90;;;2.70;;
4748;SDS011;2388;53.582;9.962;2022-09-12T00:14:01;3.00;;;2.80;;
4748;SDS011;2388;53.582;9.962;2022-09-12T00:16:28;3.73;;;3.43;;
4748;SDS011;2388;53.582;9.962;2022-09-12T00:18:55;3.57;;;3.27;;
4748;SDS011;2388;53.582;9.962;2022-09-12T00:21:20;3.37;;;3.17;;
4748;SDS011;2388;53.582;9.962;2022-09-12T00:23:47;4.10;;;3.37;;
4748;SDS011;2388;53.582;9.962;2022-09-12T00:26:15;3.80;;;3.50;;
4748;SDS011;2388;53.582;9.962;2022-09-12T00:28:41;2.90;;;2.70;;
4748;SDS011;2388;53.582;9.962;2022-09-12T00:31:09;5.23;;;3.97;;
4748;SDS011;2388;53.582;9.962;2022-09-12T00:33:37;3.90;;;3.60;;
4748;SDS011;2388;53.582;9.962;2022-09-12T00:36:09;3.60;;;3.30;;
4748;SDS011;2388;53.582;9.962;2022-09-12T00:38:38;3.13;;;2.93;;
4748;SDS011;2388;53.582;9.962;2022-09-12T00:41:06;3.77;;;3.13;;
4748;SDS011;2388;53.582;9.962;2022-09-12T00:43:40;3.50;;;3.20;;
4748;SDS011;2388;53.582;9.962;2022-09-12T00:46:12;3.70;;;3.40;;
4748;SDS011;2388;53.582;9.962;2022-09-12T00:48:40;5.17;;;3.53;;
4748;SDS011;2388;53.582;9.962;2022-09-12T00:51:14;5.17;;;3.30;;
4748;SDS011;2388;53.582;9.962;2022-09-12T00:53:41;3.57;;;3.30;;
4748;SDS011;2388;53.582;9.962;2022-09-12T00:56:08;4.63;;;4.23;;
4748;SDS011;2388;53.582;9.962;2022-09-12T00:58:36;3.90;;;3.60;;
4748;SDS011;2388;53.582;9.962;2022-09-12T01:01:08;5.87;;;4.33;;
4748;SDS011;2388;53.582;9.962;2022-09-12T01:03:34;3.53;;;3.33;;
4748;SDS011;2388;53.582;9.962;2022-09-12T01:08:29;4.00;;;3.10;;
4748;SDS011;2388;53.582;9.962;2022-09-12T01:10:57;4.10;;;3.77;;
4748;SDS011;2388;53.582;9.962;2022-09-12T01:13:23;4.67;;;3.50;;
4748;SDS011;2388;53.582;9.962;2022-09-12T01:15:49;3.60;;;3.30;;
4748;SDS011;2388;53.582;9.962;2022-09-12T01:21:17;3.13;;;2.90;;
4748;SDS011;2388;53.582;9.962;2022-09-12T01:23:59;3.17;;;2.97;;
4748;SDS011;2388;53.582;9.962;2022-09-12T01:29:38;3.00;;;2.80;;
4748;SDS011;2388;53.582;9.962;2022-09-12T01:32:30;3.90;;;3.60;;
4748;SDS011;2388;53.582;9.962;2022-09-12T01:35:18;3.53;;;3.17;;
4748;SDS011;2388;53.582;9.962;2022-09-12T01:37:51;3.40;;;3.20;;
4748;SDS011;2388;53.582;9.962;2022-09-12T01:40:41;4.20;;;3.77;;
4748;SDS011;2388;53.582;9.962;2022-09-12T01:43:17;4.17;;;3.73;;
4748;SDS011;2388;53.582;9.962;2022-09-12T01:48:40;4.40;;;4.00;;
4748;SDS011;2388;53.582;9.962;2022-09-12T01:53:49;3.60;;;3.20;;
4748;SDS011;2388;53.582;9.962;2022-09-12T01:56:26;3.53;;;3.30;;
4748;SDS011;2388;53.582;9.962;2022-09-12T02:01:26;3.23;;;2.93;;
4748;SDS011;2388;53.582;9.962;2022-09-12T02:06:48;5.80;;;3.00;;
4748;SDS011;2388;53.582;9.962;2022-09-12T02:09:19;3.33;;;3.13;;
4748;SDS011;2388;53.582;9.962;2022-09-12T02:11:48;5.83;;;3.57;;
4748;SDS011;2388;53.582;9.962;2022-09-12T02:14:18;3.30;;;3.00;;
4748;SDS011;2388;53.582;9.962;2022-09-12T02:16:49;4.33;;;3.93;;
4748;SDS011;2388;53.582;9.962;2022-09-12T02:19:20;6.90;;;3.50;;
4748;SDS011;2388;53.582;9.962;2022-09-12T02:21:55;3.83;;;3.53;;
4748;SDS011;2388;53.582;9.962;2022-09-12T02:24:24;3.60;;;3.30;;
4748;SDS011;2388;53.582;9.962;2022-09-12T02:26:57;3.03;;;2.83;;
4748;SDS011;2388;53.582;9.962;2022-09-12T02:29:27;3.53;;;3.23;;
4748;SDS011;2388;53.582;9.962;2022-09-12T02:32:00;4.70;;;3.70;;
4748;SDS011;2388;53.582;9.962;2022-09-12T02:34:37;3.90;;;3.60;;
4748;SDS011;2388;53.582;9.962;2022-09-12T02:39:41;3.80;;;3.50;;
4748;SDS011;2388;53.582;9.962;2022-09-12T02:42:07;3.60;;;3.30;;
4748;SDS011;2388;53.582;9.962;2022-09-12T02:44:33;3.87;;;3.57;;
4748;SDS011;2388;53.582;9.962;2022-09-12T02:47:01;4.10;;;3.70;;
4748;SDS011;2388;53.582;9.962;2022-09-12T02:49:31;4.27;;;3.87;;
4748;SDS011;2388;53.582;9.962;2022-09-12T02:51:57;3.63;;;3.43;;
4748;SDS011;2388;53.582;9.962;2022-09-12T02:54:23;4.90;;;4.33;;
4748;SDS011;2388;53.582;9.962;2022-09-12T02:56:49;4.00;;;3.70;;
4748;SDS011;2388;53.582;9.962;2022-09-12T02:59:16;8.20;;;4.00;;
4748;SDS011;2388;53.582;9.962;2022-09-12T03:01:49;3.93;;;3.47;;
4748;SDS011;2388;53.582;9.962;2022-09-12T03:07:00;4.30;;;3.70;;
4748;SDS011;2388;53.582;9.962;2022-09-12T03:09:41;4.60;;;4.20;;
4748;SDS011;2388;53.582;9.962;2022-09-12T03:12:24;4.67;;;4.37;;
4748;SDS011;2388;53.582;9.962;2022-09-12T03:23:04;4.77;;;4.40;;
4748;SDS011;2388;53.582;9.962;2022-09-12T03:25:51;5.27;;;4.87;;
4748;SDS011;2388;53.582;9.962;2022-09-12T03:28:22;5.37;;;4.83;;
4748;SDS011;2388;53.582;9.962;2022-09-12T03:30:48;4.43;;;4.13;;
4748;SDS011;2388;53.582;9.962;2022-09-12T03:33:20;4.97;;;4.67;;
4748;SDS011;2388;53.582;9.962;2022-09-12T03:35:47;5.20;;;4.70;;
4748;SDS011;2388;53.582;9.962;2022-09-12T03:38:14;5.83;;;5.23;;
4748;SDS011;2388;53.582;9.962;2022-09-12T03:40:40;7.23;;;4.97;;
4748;SDS011;2388;53.582;9.962;2022-09-12T03:43:06;7.30;;;5.10;;
4748;SDS011;2388;53.582;9.962;2022-09-12T03:45:33;6.80;;;4.27;;
4748;SDS011;2388;53.582;9.962;2022-09-12T03:47:59;6.87;;;4.90;;
4748;SDS011;2388;53.582;9.962;2022-09-12T03:50:25;4.70;;;4.30;;
4748;SDS011;2388;53.582;9.962;2022-09-12T03:52:50;4.87;;;4.47;;
4748;SDS011;2388;53.582;9.962;2022-09-12T03:55:16;5.30;;;4.87;;
4748;SDS011;2388;53.582;9.962;2022-09-12T03:57:42;5.30;;;4.80;;
4748;SDS011;2388;53.582;9.962;2022-09-12T04:00:07;7.03;;;5.23;;
4748;SDS011;2388;53.582;9.962;2022-09-12T04:02:33;5.73;;;5.23;;
4748;SDS011;2388;53.582;9.962;2022-09-12T04:04:59;9.23;;;6.23;;
4748;SDS011;2388;53.582;9.962;2022-09-12T04:07:25;6.00;;;5.50;;
4748;SDS011;2388;53.582;9.962;2022-09-12T04:09:51;5.13;;;4.73;;
4748;SDS011;2388;53.582;9.962;2022-09-12T04:12:17;5.20;;;4.80;;
4748;SDS011;2388;53.582;9.962;2022-09-12T04:14:46;5.43;;;5.03;;
4748;SDS011;2388;53.582;9.962;2022-09-12T04:17:11;6.80;;;5.60;;
4748;SDS011;2388;53.582;9.962;2022-09-12T04:19:38;9.27;;;4.93;;
4748;SDS011;2388;53.582;9.962;2022-09-12T04:22:03;6.00;;;5.40;;
4748;SDS011;2388;53.582;9.962;2022-09-12T04:24:29;6.23;;;5.73;;
4748;SDS011;2388;53.582;9.962;2022-09-12T04:26:54;5.43;;;5.03;;
4748;SDS011;2388;53.582;9.962;2022-09-12T04:29:20;5.47;;;5.07;;
4748;SDS011;2388;53.582;9.962;2022-09-12T04:31:45;6.23;;;5.60;;
4748;SDS011;2388;53.582;9.962;2022-09-12T04:34:11;6.43;;;5.87;;
4748;SDS011;2388;53.582;9.962;2022-09-12T04:36:36;5.23;;;4.80;;
4748;SDS011;2388;53.582;9.962;2022-09-12T04:39:03;6.30;;;5.70;;
4748;SDS011;2388;53.582;9.962;2022-09-12T04:41:30;5.83;;;5.43;;
4748;SDS011;2388;53.582;9.962;2022-09-12T04:43:58;6.70;;;6.00;;
4748;SDS011;2388;53.582;9.962;2022-09-12T04:46:26;6.80;;;6.20;;
4748;SDS011;2388;53.582;9.962;2022-09-12T04:48:52;6.50;;;5.90;;
4748;SDS011;2388;53.582;9.962;2022-09-12T04:51:20;6.30;;;5.80;;
4748;SDS011;2388;53.582;9.962;2022-09-12T04:53:50;8.10;;;7.30;;
4748;SDS011;2388;53.582;9.962;2022-09-12T04:56:17;7.90;;;6.20;;
4748;SDS011;2388;53.582;9.962;2022-09-12T04:58:44;8.77;;;6.40;;
4748;SDS011;2388;53.582;9.962;2022-09-12T05:01:11;11.27;;;6.40;;
4748;SDS011;2388;53.582;9.962;2022-09-12T05:03:39;17.43;;;7.90;;
4748;SDS011;2388;53.582;9.962;2022-09-12T05:06:08;13.00;;;7.37;;
4748;SDS011;2388;53.582;9.962;2022-09-12T05:08:35;12.60;;;7.60;;
4748;SDS011;2388;53.582;9.962;2022-09-12T05:11:02;11.90;;;7.40;;
4748;SDS011;2388;53.582;9.962;2022-09-12T05:13:32;11.93;;;6.63;;
4748;SDS011;2388;53.582;9.962;2022-09-12T05:15:58;13.63;;;8.10;;
4748;SDS011;2388;53.582;9.962;2022-09-12T05:18:25;24.20;;;8.40;;
4748;SDS011;2388;53.582;9.962;2022-09-12T05:20:54;20.00;;;8.33;;
4748;SDS011;2388;53.582;9.962;2022-09-12T05:23:20;21.07;;;9.97;;
4748;SDS011;2388;53.582;9.962;2022-09-12T05:25:48;23.90;;;8.40;;
4748;SDS011;2388;53.582;9.962;2022-09-12T05:28:17;13.50;;;8.67;;
4748;SDS011;2388;53.582;9.962;2022-09-12T05:30:44;12.03;;;8.77;;
4748;SDS011;2388;53.582;9.962;2022-09-12T05:33:10;9.20;;;8.07;;
4748;SDS011;2388;53.582;9.962;2022-09-12T05:35:36;10.13;;;8.17;;
4748;SDS011;2388;53.582;9.962;2022-09-12T05:38:02;15.10;;;8.83;;
4748;SDS011;2388;53.582;9.962;2022-09-12T05:40:31;10.80;;;8.40;;
4748;SDS011;2388;53.582;9.962;2022-09-12T05:42:57;11.20;;;9.20;;
4748;SDS011;2388;53.582;9.962;2022-09-12T05:45:23;11.00;;;9.30;;
4748;SDS011;2388;53.582;9.962;2022-09-12T05:47:48;14.60;;;9.00;;
4748;SDS011;2388;53.582;9.962;2022-09-12T05:50:14;10.47;;;9.40;;
4748;SDS011;2388;53.582;9.962;2022-09-12T05:52:39;14.43;;;9.77;;
4748;SDS011;2388;53.582;9.962;2022-09-12T05:55:06;14.80;;;10.20;;
4748;SDS011;2388;53.582;9.962;2022-09-12T05:57:32;14.20;;;9.83;;
4748;SDS011;2388;53.582;9.962;2022-09-12T05:59:57;13.30;;;9.80;;
4748;SDS011;2388;53.582;9.962;2022-09-12T06:02:23;11.37;;;9.80;;
4748;SDS011;2388;53.582;9.962;2022-09-12T06:04:49;15.53;;;10.00;;
4748;SDS011;2388;53.582;9.962;2022-09-12T06:07:14;19.63;;;11.83;;
4748;SDS011;2388;53.582;9.962;2022-09-12T06:09:40;10.50;;;9.40;;
4748;SDS011;2388;53.582;9.962;2022-09-12T06:12:05;15.20;;;11.67;;
4748;SDS011;2388;53.582;9.962;2022-09-12T06:14:32;14.70;;;11.13;;
4748;SDS011;2388;53.582;9.962;2022-09-12T06:16:58;17.57;;;11.97;;
4748;SDS011;2388;53.582;9.962;2022-09-12T06:19:23;15.37;;;10.80;;
4748;SDS011;2388;53.582;9.962;2022-09-12T06:21:51;16.33;;;12.43;;
4748;SDS011;2388;53.582;9.962;2022-09-12T06:24:17;18.93;;;13.40;;
4748;SDS011;2388;53.582;9.962;2022-09-12T06:26:43;13.90;;;11.80;;
4748;SDS011;2388;53.582;9.962;2022-09-12T06:29:09;13.60;;;12.13;;
4748;SDS011;2388;53.582;9.962;2022-09-12T06:31:36;17.70;;;12.30;;
4748;SDS011;2388;53.582;9.962;2022-09-12T06:34:03;15.63;;;10.27;;
4748;SDS011;2388;53.582;9.962;2022-09-12T06:36:31;12.90;;;9.83;;
4748;SDS011;2388;53.582;9.962;2022-09-12T06:39:01;20.13;;;11.47;;
4748;SDS011;2388;53.582;9.962;2022-09-12T06:41:30;13.67;;;10.67;;
4748;SDS011;2388;53.582;9.962;2022-09-12T06:43:56;11.83;;;10.10;;
4748;SDS011;2388;53.582;9.962;2022-09-12T06:46:23;10.33;;;8.90;;
4748;SDS011;2388;53.582;9.962;2022-09-12T06:48:49;12.37;;;9.73;;
4748;SDS011;2388;53.582;9.962;2022-09-12T06:51:15;13.23;;;9.60;;
4748;SDS011;2388;53.582;9.962;2022-09-12T06:53:42;16.37;;;10.47;;
4748;SDS011;2388;53.582;9.962;2022-09-12T06:56:13;25.23;;;19.77;;
4748;SDS011;2388;53.582;9.962;2022-09-12T06:58:41;38.23;;;19.73;;
4748;SDS011;2388;53.582;9.962;2022-09-12T07:01:08;19.53;;;11.97;;
4748;SDS011;2388;53.582;9.962;2022-09-12T07:03:35;10.80;;;9.57;;
4748;SDS011;2388;53.582;9.962;2022-09-12T07:06:09;12.33;;;7.67;;
4748;SDS011;2388;53.582;9.962;2022-09-12T07:08:36;10.80;;;7.63;;
4748;SDS011;2388;53.582;9.962;2022-09-12T07:11:19;7.73;;;6.93;;
4748;SDS011;2388;53.582;9.962;2022-09-12T07:13:48;7.07;;;6.47;;
4748;SDS011;2388;53.582;9.962;2022-09-12T07:16:16;7.97;;;6.90;;
4748;SDS011;2388;53.582;9.962;2022-09-12T07:18:42;6.67;;;6.07;;
4748;SDS011;2388;53.582;9.962;2022-09-12T07:21:10;8.73;;;6.40;;
4748;SDS011;2388;53.582;9.962;2022-09-12T07:23:37;7.27;;;6.53;;
4748;SDS011;2388;53.582;9.962;2022-09-12T07:26:04;6.50;;;6.00;;
4748;SDS011;2388;53.582;9.962;2022-09-12T07:28:30;5.70;;;5.33;;
4748;SDS011;2388;53.582;9.962;2022-09-12T07:30:57;9.13;;;6.43;;
4748;SDS011;2388;53.582;9.962;2022-09-12T07:33:28;6.50;;;6.00;;
4748;SDS011;2388;53.582;9.962;2022-09-12T07:35:54;6.90;;;5.40;;
4748;SDS011;2388;53.582;9.962;2022-09-12T07:38:24;5.47;;;5.00;;
4748;SDS011;2388;53.582;9.962;2022-09-12T07:40:50;6.30;;;5.80;;
4748;SDS011;2388;53.582;9.962;2022-09-12T07:43:15;6.00;;;5.50;;
4748;SDS011;2388;53.582;9.962;2022-09-12T07:45:40;7.33;;;6.73;;
4748;SDS011;2388;53.582;9.962;2022-09-12T07:48:07;30.03;;;8.47;;
4748;SDS011;2388;53.582;9.962;2022-09-12T07:50:33;16.80;;;8.07;;
4748;SDS011;2388;53.582;9.962;2022-09-12T07:53:00;14.83;;;7.73;;
4748;SDS011;2388;53.582;9.962;2022-09-12T07:55:27;10.70;;;8.47;;
4748;SDS011;2388;53.582;9.962;2022-09-12T07:57:53;8.90;;;8.03;;
4748;SDS011;2388;53.582;9.962;2022-09-12T08:00:19;12.67;;;7.23;;
4748;SDS011;2388;53.582;9.962;2022-09-12T08:02:49;18.57;;;8.50;;
4748;SDS011;2388;53.582;9.962;2022-09-12T08:05:15;8.70;;;7.73;;
4748;SDS011;2388;53.582;9.962;2022-09-12T08:07:41;14.17;;;7.70;;
4748;SDS011;2388;53.582;9.962;2022-09-12T08:10:06;12.03;;;7.13;;
4748;SDS011;2388;53.582;9.962;2022-09-12T08:12:32;8.27;;;7.17;;
4748;SDS011;2388;53.582;9.962;2022-09-12T08:14:58;8.83;;;6.53;;
4748;SDS011;2388;53.582;9.962;2022-09-12T08:17:24;8.13;;;6.70;;
4748;SDS011;2388;53.582;9.962;2022-09-12T08:19:50;7.83;;;6.50;;
4748;SDS011;2388;53.582;9.962;2022-09-12T08:22:16;6.60;;;6.00;;
4748;SDS011;2388;53.582;9.962;2022-09-12T08:24:45;7.70;;;6.53;;
4748;SDS011;2388;53.582;9.962;2022-09-12T08:27:11;6.00;;;5.60;;
4748;SDS011;2388;53.582;9.962;2022-09-12T08:29:37;8.40;;;5.07;;
4748;SDS011;2388;53.582;9.962;2022-09-12T08:32:02;6.63;;;4.50;;
4748;SDS011;2388;53.582;9.962;2022-09-12T08:34:28;4.63;;;4.00;;
4748;SDS011;2388;53.582;9.962;2022-09-12T08:36:53;3.90;;;3.60;;
4748;SDS011;2388;53.582;9.962;2022-09-12T08:39:19;3.33;;;3.13;;
4748;SDS011;2388;53.582;9.962;2022-09-12T08:41:46;8.90;;;4.00;;
4748;SDS011;2388;53.582;9.962;2022-09-12T08:47:26;3.10;;;2.67;;
4748;SDS011;2388;53.582;9.962;2022-09-12T08:55:11;7.63;;;4.53;;
4748;SDS011;2388;53.582;9.962;2022-09-12T08:57:57;3.40;;;3.20;;
4748;SDS011;2388;53.582;9.962;2022-09-12T09:00:25;4.00;;;3.37;;
4748;SDS011;2388;53.582;9.962;2022-09-12T09:05:53;15.60;;;10.10;;
4748;SDS011;2388;53.582;9.962;2022-09-12T09:08:44;5.60;;;3.40;;
4748;SDS011;2388;53.582;9.962;2022-09-12T09:11:46;4.53;;;2.57;;
4748;SDS011;2388;53.582;9.962;2022-09-12T09:14:36;3.00;;;2.80;;
4748;SDS011;2388;53.582;9.962;2022-09-12T09:17:24;2.10;;;2.00;;
4748;SDS011;2388;53.582;9.962;2022-09-12T09:20:02;3.03;;;2.43;;
4748;SDS011;2388;53.582;9.962;2022-09-12T09:22:45;3.60;;;2.70;;
4748;SDS011;2388;53.582;9.962;2022-09-12T09:25:20;2.80;;;2.60;;
4748;SDS011;2388;53.582;9.962;2022-09-12T09:27:55;4.60;;;2.60;;
4748;SDS011;2388;53.582;9.962;2022-09-12T09:30:25;2.90;;;2.37;;
4748;SDS011;2388;53.582;9.962;2022-09-12T09:32:51;9.30;;;3.00;;
4748;SDS011;2388;53.582;9.962;2022-09-12T09:35:28;2.70;;;2.07;;
4748;SDS011;2388;53.582;9.962;2022-09-12T09:38:13;3.70;;;2.47;;
4748;SDS011;2388;53.582;9.962;2022-09-12T09:43:27;2.70;;;2.50;;
4748;SDS011;2388;53.582;9.962;2022-09-12T09:45:53;5.43;;;2.70;;
4748;SDS011;2388;53.582;9.962;2022-09-12T09:50:55;3.13;;;2.90;;
4748;SDS011;2388;53.582;9.962;2022-09-12T09:53:30;2.33;;;2.23;;
4748;SDS011;2388;53.582;9.962;2022-09-12T09:56:00;4.17;;;2.50;;
4748;SDS011;2388;53.582;9.962;2022-09-12T09:58:34;2.30;;;2.20;;
4748;SDS011;2388;53.582;9.962;2022-09-12T10:01:04;2.10;;;2.00;;
4748;SDS011;2388;53.582;9.962;2022-09-12T10:03:36;6.07;;;3.37;;
4748;SDS011;2388;53.582;9.962;2022-09-12T10:08:44;13.67;;;12.27;;
4748;SDS011;2388;53.582;9.962;2022-09-12T10:16:22;3.03;;;2.70;;
4748;SDS011;2388;53.582;9.962;2022-09-12T10:18:48;2.63;;;2.43;;
4748;SDS011;2388;53.582;9.962;2022-09-12T10:21:20;2.83;;;2.67;;
4748;SDS011;2388;53.582;9.962;2022-09-12T10:23:56;3.90;;;2.90;;
4748;SDS011;2388;53.582;9.962;2022-09-12T10:26:32;2.67;;;2.47;;
4748;SDS011;2388;53.582;9.962;2022-09-12T10:29:03;4.77;;;2.67;;
4748;SDS011;2388;53.582;9.962;2022-09-12T10:31:44;8.13;;;6.30;;
4748;SDS011;2388;53.582;9.962;2022-09-12T10:34:29;3.53;;;2.83;;
4748;SDS011;2388;53.582;9.962;2022-09-12T10:37:14;2.70;;;2.50;;
4748;SDS011;2388;53.582;9.962;2022-09-12T10:39:48;4.60;;;2.13;;
4748;SDS011;2388;53.582;9.962;2022-09-12T10:42:20;3.83;;;2.33;;
4748;SDS011;2388;53.582;9.962;2022-09-12T10:45:37;2.33;;;2.13;;
4748;SDS011;2388;53.582;9.962;2022-09-12T10:50:53;1.90;;;1.80;;
4748;SDS011;2388;53.582;9.962;2022-09-12T10:53:24;1.90;;;1.80;;
4748;SDS011;2388;53.582;9.962;2022-09-12T10:56:10;2.50;;;1.83;;
4748;SDS011;2388;53.582;9.962;2022-09-12T11:06:34;6.53;;;2.80;;
4748;SDS011;2388;53.582;9.962;2022-09-12T11:09:19;4.17;;;3.87;;
4748;SDS011;2388;53.582;9.962;2022-09-12T11:12:02;6.50;;;3.30;;
4748;SDS011;2388;53.582;9.962;2022-09-12T11:14:48;2.67;;;1.90;;
4748;SDS011;2388;53.582;9.962;2022-09-12T11:19:56;2.53;;;2.33;;
4748;SDS011;2388;53.582;9.962;2022-09-12T11:25:27;3.50;;;1.20;;
4748;SDS011;2388;53.582;9.962;2022-09-12T11:28:24;2.90;;;1.60;;
4748;SDS011;2388;53.582;9.962;2022-09-12T11:33:44;2.80;;;2.00;;
4748;SDS011;2388;53.582;9.962;2022-09-12T11:36:16;5.77;;;3.70;;
4748;SDS011;2388;53.582;9.962;2022-09-12T11:41:35;2.00;;;1.80;;
4748;SDS011;2388;53.582;9.962;2022-09-12T11:46:47;1.80;;;1.70;;
4748;SDS011;2388;53.582;9.962;2022-09-12T11:49:18;1.93;;;1.60;;
4748;SDS011;2388;53.582;9.962;2022-09-12T11:57:38;3.73;;;2.23;;
4748;SDS011;2388;53.582;9.962;2022-09-12T12:00:15;1.60;;;1.50;;
4748;SDS011;2388;53.582;9.962;2022-09-12T12:05:50;1.93;;;1.00;;
4748;SDS011;2388;53.582;9.962;2022-09-12T12:08:26;2.20;;;1.40;;
4748;SDS011;2388;53.582;9.962;2022-09-12T12:11:02;1.40;;;1.30;;
4748;SDS011;2388;53.582;9.962;2022-09-12T12:13:33;2.40;;;1.67;;
4748;SDS011;2388;53.582;9.962;2022-09-12T12:16:06;1.30;;;1.20;;
4748;SDS011;2388;53.582;9.962;2022-09-12T12:18:42;1.37;;;1.20;;
4748;SDS011;2388;53.582;9.962;2022-09-12T12:32:17;1.40;;;1.30;;
4748;SDS011;2388;53.582;9.962;2022-09-12T12:34:45;1.87;;;1.77;;
4748;SDS011;2388;53.582;9.962;2022-09-12T12:45:02;2.47;;;1.33;;
4748;SDS011;2388;53.582;9.962;2022-09-12T12:50:01;13.17;;;1.40;;
4748;SDS011;2388;53.582;9.962;2022-09-12T12:52:47;1.57;;;1.47;;
4748;SDS011;2388;53.582;9.962;2022-09-12T12:55:33;1.40;;;1.30;;
4748;SDS011;2388;53.582;9.962;2022-09-12T12:58:02;1.40;;;1.30;;
4748;SDS011;2388;53.582;9.962;2022-09-12T13:00:34;6.03;;;1.63;;
4748;SDS011;2388;53.582;9.962;2022-09-12T13:05:40;2.00;;;1.90;;
4748;SDS011;2388;53.582;9.962;2022-09-12T13:10:52;3.23;;;1.47;;
4748;SDS011;2388;53.582;9.962;2022-09-12T13:19:02;5.97;;;5.40;;
4748;SDS011;2388;53.582;9.962;2022-09-12T13:21:53;6.03;;;5.50;;
4748;SDS011;2388;53.582;9.962;2022-09-12T13:24:27;2.57;;;2.17;;
4748;SDS011;2388;53.582;9.962;2022-09-12T13:26:53;2.00;;;1.80;;
4748;SDS011;2388;53.582;9.962;2022-09-12T13:29:19;2.90;;;1.90;;
4748;SDS011;2388;53.582;9.962;2022-09-12T13:31:50;1.20;;;1.10;;
4748;SDS011;2388;53.582;9.962;2022-09-12T13:34:25;5.20;;;2.30;;
4748;SDS011;2388;53.582;9.962;2022-09-12T13:37:13;1.60;;;1.50;;
4748;SDS011;2388;53.582;9.962;2022-09-12T13:40:09;1.63;;;1.00;;
4748;SDS011;2388;53.582;9.962;2022-09-12T13:43:06;3.63;;;1.70;;
4748;SDS011;2388;53.582;9.962;2022-09-12T13:45:37;1.60;;;1.43;;
4748;SDS011;2388;53.582;9.962;2022-09-12T13:48:03;3.30;;;1.80;;
4748;SDS011;2388;53.582;9.962;2022-09-12T13:50:32;5.53;;;2.10;;
4748;SDS011;2388;53.582;9.962;2022-09-12T13:53:05;4.90;;;1.77;;
4748;SDS011;2388;53.582;9.962;2022-09-12T13:55:38;1.63;;;1.53;;
4748;SDS011;2388;53.582;9.962;2022-09-12T13:58:19;1.90;;;1.60;;
4748;SDS011;2388;53.582;9.962;2022-09-12T14:00:58;2.17;;;2.07;;
4748;SDS011;2388;53.582;9.962;2022-09-12T14:03:30;2.80;;;2.03;;
4748;SDS011;2388;53.582;9.962;2022-09-12T14:06:22;1.40;;;1.30;;
4748;SDS011;2388;53.582;9.962;2022-09-12T14:08:49;1.80;;;1.70;;
4748;SDS011;2388;53.582;9.962;2022-09-12T14:11:26;1.67;;;1.57;;
4748;SDS011;2388;53.582;9.962;2022-09-12T14:13:53;2.00;;;1.90;;
4748;SDS011;2388;53.582;9.962;2022-09-12T14:16:20;2.00;;;1.73;;
4748;SDS011;2388;53.582;9.962;2022-09-12T14:18:48;2.10;;;2.00;;
4748;SDS011;2388;53.582;9.962;2022-09-12T14:21:19;1.63;;;1.53;;
4748;SDS011;2388;53.582;9.962;2022-09-12T14:23:59;1.70;;;1.53;;
4748;SDS011;2388;53.582;9.962;2022-09-12T14:26:28;2.27;;;2.07;;
4748;SDS011;2388;53.582;9.962;2022-09-12T14:28:57;2.10;;;2.00;;
4748;SDS011;2388;53.582;9.962;2022-09-12T14:31:24;4.93;;;2.00;;
4748;SDS011;2388;53.582;9.962;2022-09-12T14:34:07;3.83;;;2.40;;
4748;SDS011;2388;53.582;9.962;2022-09-12T14:36:38;1.83;;;1.70;;
4748;SDS011;2388;53.582;9.962;2022-09-12T14:39:17;1.83;;;1.70;;
4748;SDS011;2388;53.582;9.962;2022-09-12T14:41:43;2.23;;;2.00;;
4748;SDS011;2388;53.582;9.962;2022-09-12T14:44:17;2.00;;;1.77;;
4748;SDS011;2388;53.582;9.962;2022-09-12T14:46:46;3.80;;;2.07;;
4748;SDS011;2388;53.582;9.962;2022-09-12T14:49:17;4.87;;;4.43;;
4748;SDS011;2388;53.582;9.962;2022-09-12T14:52:00;2.13;;;2.03;;
4748;SDS011;2388;53.582;9.962;2022-09-12T14:56:56;3.07;;;2.47;;
4748;SDS011;2388;53.582;9.962;2022-09-12T14:59:30;5.33;;;2.67;;
4748;SDS011;2388;53.582;9.962;2022-09-12T15:04:47;2.97;;;2.77;;
4748;SDS011;2388;53.582;9.962;2022-09-12T15:07:34;8.20;;;2.40;;
4748;SDS011;2388;53.582;9.962;2022-09-12T15:10:04;2.60;;;2.40;;
4748;SDS011;2388;53.582;9.962;2022-09-12T15:12:31;2.17;;;1.97;;
4748;SDS011;2388;53.582;9.962;2022-09-12T15:14:58;2.10;;;1.80;;
4748;SDS011;2388;53.582;9.962;2022-09-12T15:17:30;2.67;;;2.20;;
4748;SDS011;2388;53.582;9.962;2022-09-12T15:19:56;2.33;;;1.90;;
4748;SDS011;2388;53.582;9.962;2022-09-12T15:22:21;2.53;;;2.40;;
4748;SDS011;2388;53.582;9.962;2022-09-12T15:24:48;3.10;;;2.20;;
4748;SDS011;2388;53.582;9.962;2022-09-12T15:27:14;2.53;;;2.30;;
4748;SDS011;2388;53.582;9.962;2022-09-12T15:29:39;2.37;;;2.27;;
4748;SDS011;2388;53.582;9.962;2022-09-12T15:32:05;2.63;;;2.53;;
4748;SDS011;2388;53.582;9.962;2022-09-12T15:34:38;2.27;;;2.07;;
4748;SDS011;2388;53.582;9.962;2022-09-12T15:37:08;2.10;;;1.93;;
4748;SDS011;2388;53.582;9.962;2022-09-12T15:39:37;3.00;;;2.27;;
4748;SDS011;2388;53.582;9.962;2022-09-12T15:42:03;2.27;;;2.07;;
4748;SDS011;2388;53.582;9.962;2022-09-12T15:44:28;2.93;;;2.73;;
4748;SDS011;2388;53.582;9.962;2022-09-12T15:46:54;3.00;;;2.80;;
4748;SDS011;2388;53.582;9.962;2022-09-12T15:49:20;2.33;;;2.07;;
4748;SDS011;2388;53.582;9.962;2022-09-12T15:51:45;2.63;;;2.37;;
4748;SDS011;2388;53.582;9.962;2022-09-12T15:54:11;2.10;;;1.90;;
4748;SDS011;2388;53.582;9.962;2022-09-12T15:56:38;3.63;;;2.20;;
4748;SDS011;2388;53.582;9.962;2022-09-12T15:59:04;2.30;;;2.10;;
4748;SDS011;2388;53.582;9.962;2022-09-12T16:01:30;3.27;;;2.97;;
4748;SDS011;2388;53.582;9.962;2022-09-12T16:03:55;2.50;;;2.20;;
4748;SDS011;2388;53.582;9.962;2022-09-12T16:06:21;2.70;;;2.50;;
4748;SDS011;2388;53.582;9.962;2022-09-12T16:08:47;3.13;;;2.93;;
4748;SDS011;2388;53.582;9.962;2022-09-12T16:11:16;5.13;;;4.00;;
4748;SDS011;2388;53.582;9.962;2022-09-12T16:13:47;9.10;;;7.10;;
4748;SDS011;2388;53.582;9.962;2022-09-12T16:16:13;2.83;;;2.53;;
4748;SDS011;2388;53.582;9.962;2022-09-12T16:18:39;2.63;;;2.43;;
4748;SDS011;2388;53.582;9.962;2022-09-12T16:21:05;2.53;;;2.10;;
4748;SDS011;2388;53.582;9.962;2022-09-12T16:23:30;2.33;;;2.23;;
4748;SDS011;2388;53.582;9.962;2022-09-12T16:28:22;3.63;;;2.47;;
4748;SDS011;2388;53.582;9.962;2022-09-12T16:31:04;3.27;;;2.20;;
4748;SDS011;2388;53.582;9.962;2022-09-12T16:33:30;2.37;;;2.17;;
4748;SDS011;2388;53.582;9.962;2022-09-12T16:36:00;3.27;;;2.30;;
4748;SDS011;2388;53.582;9.962;2022-09-12T16:38:30;2.47;;;2.27;;
4748;SDS011;2388;53.582;9.962;2022-09-12T16:41:00;2.30;;;2.10;;
4748;SDS011;2388;53.582;9.962;2022-09-12T16:43:26;2.07;;;1.97;;
4748;SDS011;2388;53.582;9.962;2022-09-12T16:45:58;2.10;;;2.00;;
4748;SDS011;2388;53.582;9.962;2022-09-12T16:48:26;5.00;;;2.80;;
4748;SDS011;2388;53.582;9.962;2022-09-12T16:50:59;7.37;;;2.80;;
4748;SDS011;2388;53.582;9.962;2022-09-12T16:53:29;2.53;;;2.33;;
4748;SDS011;2388;53.582;9.962;2022-09-12T16:55:56;3.23;;;2.93;;
4748;SDS011;2388;53.582;9.962;2022-09-12T16:58:21;2.63;;;2.43;;
4748;SDS011;2388;53.582;9.962;2022-09-12T17:00:47;2.70;;;2.50;;
4748;SDS011;2388;53.582;9.962;2022-09-12T17:03:12;2.83;;;2.73;;
4748;SDS011;2388;53.582;9.962;2022-09-12T17:05:40;3.30;;;2.83;;
4748;SDS011;2388;53.582;9.962;2022-09-12T17:08:06;2.87;;;2.67;;
4748;SDS011;2388;53.582;9.962;2022-09-12T17:10:33;2.70;;;2.43;;
4748;SDS011;2388;53.582;9.962;2022-09-12T17:12:58;2.80;;;2.60;;
4748;SDS011;2388;53.582;9.962;2022-09-12T17:15:25;8.80;;;7.90;;
4748;SDS011;2388;53.582;9.962;2022-09-12T17:17:51;4.97;;;3.80;;
4748;SDS011;2388;53.582;9.962;2022-09-12T17:20:16;2.80;;;2.67;;
4748;SDS011;2388;53.582;9.962;2022-09-12T17:22:42;6.13;;;2.83;;
4748;SDS011;2388;53.582;9.962;2022-09-12T17:25:08;8.10;;;2.57;;
4748;SDS011;2388;53.582;9.962;2022-09-12T17:27:33;4.43;;;2.80;;
4748;SDS011;2388;53.582;9.962;2022-09-12T17:29:59;4.43;;;3.30;;
4748;SDS011;2388;53.582;9.962;2022-09-12T17:32:24;3.87;;;3.60;;
4748;SDS011;2388;53.582;9.962;2022-09-12T17:34:50;5.20;;;4.80;;
4748;SDS011;2388;53.582;9.962;2022-09-12T17:37:15;4.33;;;4.03;;
4748;SDS011;2388;53.582;9.962;2022-09-12T17:39:41;5.57;;;3.23;;
4748;SDS011;2388;53.582;9.962;2022-09-12T17:42:07;3.90;;;3.60;;